Time;durP1;ratioP1;P1;durP2;ratioP2;P2;SDS_P1;SDS_P2;PMS_P1;PMS_P2;Temp;Humidity;BMP_temperature;BMP_pressure;BME280_temperature;BME280_humidity;BME280_pressure;Samples;Min_cycle;Max_cycle;Signal;HPM_P1;HPM_P2
2021/07/01 00:02:00;;;;;;;23.48;13.38;;;;;;;13.71;90.75;101380.81;5103936;27;20043;-55
2021/07/01 00:04:28;;;;;;;18.40;11.70;;;;;;;13.72;91.58;101379.88;5115741;27;20101;-53
2021/07/01 00:06:55;;;;;;;20.42;13.00;;;;;;;13.76;91.36;101386.63;5122562;27;20503;-54
2021/07/01 00:09:23;;;;;;;20.42;11.95;;;;;;;13.77;91.03;101387.47;5113691;27;20100;-54
2021/07/01 00:11:51;;;;;;;23.50;12.27;;;;;;;13.72;90.88;101389.63;5124844;27;20051;-55
2021/07/01 00:14:19;;;;;;;20.67;13.57;;;;;;;13.74;91.26;101388.53;5092576;27;20050;-54
2021/07/01 00:16:47;;;;;;;22.45;12.30;;;;;;;13.74;91.13;101385.88;5119496;27;20122;-55
2021/07/01 00:19:14;;;;;;;20.77;11.32;;;;;;;13.68;91.77;101381.88;5097877;27;20487;-54
2021/07/01 00:21:41;;;;;;;20.10;10.50;;;;;;;13.73;92.04;101386.00;5062734;27;20039;-59
2021/07/01 00:24:08;;;;;;;21.63;10.20;;;;;;;13.73;91.84;101380.72;5123814;27;20089;-59
2021/07/01 00:26:34;;;;;;;19.23;10.90;;;;;;;13.67;91.86;101390.78;5122843;27;20043;-59
2021/07/01 00:29:01;;;;;;;16.70;10.30;;;;;;;13.68;91.71;101389.81;5106674;27;20097;-59
2021/07/01 00:31:28;;;;;;;17.48;10.55;;;;;;;13.65;92.34;101378.63;5101501;27;20416;-59
2021/07/01 00:33:55;;;;;;;20.35;10.48;;;;;;;13.72;92.40;101382.53;5111691;27;20039;-59
2021/07/01 00:36:22;;;;;;;15.43;9.27;;;;;;;13.80;92.32;101379.34;5113390;27;20120;-58
2021/07/01 00:38:50;;;;;;;19.60;10.32;;;;;;;13.83;91.80;101377.31;5124794;27;20111;-59
2021/07/01 00:41:17;;;;;;;19.08;9.52;;;;;;;13.79;91.89;101373.19;5126929;27;20088;-58
2021/07/01 00:43:44;;;;;;;20.30;10.40;;;;;;;13.79;92.30;101377.66;5104838;27;20062;-58
2021/07/01 00:46:11;;;;;;;18.05;10.27;;;;;;;13.76;91.69;101376.06;5126079;27;20521;-57
2021/07/01 00:48:38;;;;;;;20.08;10.85;;;;;;;13.80;92.00;101374.06;5097367;28;20040;-58
2021/07/01 00:51:05;;;;;;;22.20;10.48;;;;;;;13.80;92.22;101382.00;5112059;27;20105;-58
2021/07/01 00:53:32;;;;;;;18.58;10.23;;;;;;;13.85;92.35;101375.44;5110357;27;20485;-58
2021/07/01 00:56:00;;;;;;;19.20;10.43;;;;;;;13.74;92.24;101379.75;5107663;27;20039;-57
2021/07/01 00:58:27;;;;;;;21.10;11.32;;;;;;;13.80;92.13;101384.63;5107658;27;20112;-58
2021/07/01 01:03:20;;;;;;;18.85;9.82;;;;;;;13.81;92.47;101381.88;5114226;27;20043;-59
2021/07/01 01:05:47;;;;;;;19.05;9.88;;;;;;;13.81;92.14;101387.16;5104267;27;20047;-58
2021/07/01 01:08:14;;;;;;;17.80;10.07;;;;;;;13.89;92.13;101376.03;5114244;27;20040;-57
2021/07/01 01:10:41;;;;;;;16.02;9.82;;;;;;;13.88;91.75;101390.22;5105356;28;20400;-58
2021/07/01 01:13:08;;;;;;;18.55;11.05;;;;;;;13.82;91.75;101383.53;5110199;28;20491;-58
2021/07/01 01:15:35;;;;;;;17.67;9.75;;;;;;;13.75;91.88;101384.94;5125628;28;20058;-59
2021/07/01 01:18:03;;;;;;;20.45;10.88;;;;;;;13.77;91.80;101383.06;5102751;28;20057;-58
2021/07/01 01:20:29;;;;;;;20.27;11.18;;;;;;;13.74;92.00;101380.59;5119468;28;20054;-53
2021/07/01 01:22:56;;;;;;;22.02;11.32;;;;;;;13.80;91.32;101382.00;5091775;28;20430;-58
2021/07/01 01:25:23;;;;;;;23.67;10.88;;;;;;;13.72;92.14;101390.44;5114514;28;20491;-58
2021/07/01 01:27:50;;;;;;;16.83;10.88;;;;;;;13.72;92.24;101389.63;5098572;28;20051;-58
2021/07/01 01:30:17;;;;;;;21.38;11.50;;;;;;;13.70;92.19;101387.06;5116036;27;20047;-52
2021/07/01 01:32:44;;;;;;;26.00;10.85;;;;;;;13.73;91.79;101392.16;5126246;27;20055;-54
2021/07/01 01:35:10;;;;;;;15.80;9.88;;;;;;;13.73;91.49;101391.28;5114346;27;20519;-54
2021/07/01 01:37:37;;;;;;;16.85;9.45;;;;;;;13.71;91.38;101383.47;5115476;27;20039;-52
2021/07/01 01:40:05;;;;;;;15.80;10.00;;;;;;;13.67;91.71;101382.00;5118926;27;20433;-54
2021/07/01 01:42:32;;;;;;;17.52;10.27;;;;;;;13.72;91.58;101381.69;5130211;27;20035;-52
2021/07/01 01:44:58;;;;;;;20.17;9.50;;;;;;;13.77;92.09;101375.13;5110856;27;20051;-53
2021/07/01 01:47:25;;;;;;;16.25;8.55;;;;;;;13.76;91.25;101388.44;5118089;27;20047;-55
2021/07/01 01:49:52;;;;;;;14.77;7.68;;;;;;;13.75;91.27;101378.81;5094964;27;20058;-54
2021/07/01 01:52:19;;;;;;;11.40;6.90;;;;;;;13.76;91.30;101373.44;5122243;27;20046;-53
2021/07/01 01:54:46;;;;;;;17.85;7.57;;;;;;;13.73;90.79;101370.13;5099670;27;20043;-58
2021/07/01 01:57:12;;;;;;;16.60;8.10;;;;;;;13.75;90.79;101373.53;5119912;27;20043;-53
2021/07/01 01:59:47;;;;;;;16.05;7.70;;;;;;;13.73;91.49;101375.44;5094776;28;20047;-54
2021/07/01 02:02:14;;;;;;;14.57;7.20;;;;;;;13.84;91.08;101378.19;5114271;27;20058;-52
2021/07/01 02:04:41;;;;;;;13.80;7.20;;;;;;;13.80;91.42;101376.72;5097516;27;20059;-57
2021/07/01 02:07:07;;;;;;;16.42;7.53;;;;;;;13.79;91.47;101380.28;5124191;27;20102;-57
2021/07/01 02:09:34;;;;;;;18.60;7.68;;;;;;;13.74;90.99;101377.13;5121134;27;20055;-58
2021/07/01 02:12:01;;;;;;;14.82;7.75;;;;;;;13.72;91.51;101373.75;5124588;27;20035;-58
2021/07/01 02:14:28;;;;;;;16.08;6.78;;;;;;;13.63;90.81;101378.75;5121503;27;20070;-57
2021/07/01 02:16:55;;;;;;;17.00;7.53;;;;;;;13.57;91.55;101379.16;5121129;27;20061;-54
2021/07/01 02:19:22;;;;;;;14.82;7.57;;;;;;;13.47;91.68;101380.72;5113776;27;20043;-51
2021/07/01 02:21:49;;;;;;;16.77;6.85;;;;;;;13.49;91.63;101384.13;5126998;27;20046;-58
2021/07/01 02:24:15;;;;;;;15.70;7.22;;;;;;;13.42;91.61;101382.84;5110980;27;20043;-57
2021/07/01 02:26:42;;;;;;;18.55;8.18;;;;;;;13.48;91.88;101387.69;5127239;27;20051;-58
2021/07/01 02:29:09;;;;;;;14.35;6.80;;;;;;;13.41;91.43;101381.16;5082513;27;20516;-58
2021/07/01 02:31:36;;;;;;;14.13;6.25;;;;;;;13.38;91.70;101384.84;5101871;27;20039;-52
2021/07/01 02:34:02;;;;;;;15.23;7.00;;;;;;;13.38;91.28;101384.84;5123198;27;20047;-54
2021/07/01 02:36:29;;;;;;;19.48;7.32;;;;;;;13.38;91.49;101386.66;5117405;27;20039;-57
2021/07/01 02:38:56;;;;;;;13.43;6.53;;;;;;;13.35;92.22;101392.97;5096661;28;20047;-53
2021/07/01 02:41:23;;;;;;;14.70;7.50;;;;;;;13.37;92.33;101384.97;5095804;28;20043;-52
2021/07/01 02:43:50;;;;;;;12.60;6.40;;;;;;;13.37;92.52;101384.97;5124836;27;20660;-53
2021/07/01 02:46:17;;;;;;;15.73;6.18;;;;;;;13.50;92.60;101380.53;5126111;27;20050;-58
2021/07/01 02:48:44;;;;;;;14.10;6.20;;;;;;;13.43;92.15;101385.38;5102790;27;20043;-58
2021/07/01 02:51:10;;;;;;;15.30;6.40;;;;;;;13.47;92.55;101388.66;5113598;27;20056;-58
2021/07/01 02:53:37;;;;;;;12.80;6.65;;;;;;;13.47;91.88;101392.16;5085095;27;20096;-57
2021/07/01 02:56:04;;;;;;;15.43;6.68;;;;;;;13.35;91.89;101393.84;5128981;27;20157;-53
2021/07/01 02:58:31;;;;;;;10.95;6.32;;;;;;;13.29;92.11;101388.09;5095313;27;20048;-58
2021/07/01 03:00:58;;;;;;;16.52;6.85;;;;;;;13.29;92.18;101388.94;5095366;27;20051;-49
2021/07/01 03:03:25;;;;;;;14.32;6.50;;;;;;;13.23;91.97;101383.25;5110778;27;20055;-52
2021/07/01 03:05:52;;;;;;;11.85;6.10;;;;;;;13.18;92.80;101389.69;5093788;28;20047;-54
2021/07/01 03:08:19;;;;;;;14.80;7.07;;;;;;;13.19;92.92;101379.94;5115978;27;20062;-55
2021/07/01 03:10:45;;;;;;;16.45;7.50;;;;;;;13.26;93.03;101383.84;5112249;27;20734;-53
2021/07/01 03:13:12;;;;;;;13.98;7.00;;;;;;;13.26;92.46;101385.66;5114430;27;20403;-54
2021/07/01 03:15:40;;;;;;;16.02;7.18;;;;;;;13.28;91.99;101383.75;5111829;27;20047;-54
2021/07/01 03:18:07;;;;;;;20.73;7.68;;;;;;;13.13;92.37;101381.22;5115615;27;20035;-51
2021/07/01 03:20:34;;;;;;;16.40;7.35;;;;;;;13.20;92.36;101376.38;5111695;27;20052;-55
2021/07/01 03:23:02;;;;;;;14.20;6.28;;;;;;;13.25;91.96;101382.19;5099540;27;20499;-54
2021/07/01 03:25:29;;;;;;;12.93;6.82;;;;;;;13.12;91.86;101382.16;5097828;27;20031;-53
2021/07/01 03:27:56;;;;;;;13.63;6.60;;;;;;;13.14;92.33;101382.91;5110595;27;20525;-56
2021/07/01 03:30:23;;;;;;;15.35;6.90;;;;;;;13.18;92.58;101380.88;5113759;27;20048;-54
2021/07/01 03:32:50;;;;;;;14.73;6.82;;;;;;;13.19;92.67;101378.13;5116368;27;20046;-53
2021/07/01 03:35:17;;;;;;;16.08;7.25;;;;;;;13.23;92.18;101384.06;5115292;27;20031;-54
2021/07/01 03:37:44;;;;;;;15.93;6.70;;;;;;;13.27;91.88;101382.91;5115775;27;20039;-55
2021/07/01 03:40:11;;;;;;;15.90;6.97;;;;;;;13.26;92.20;101380.38;5113438;27;20400;-52
2021/07/01 03:42:38;;;;;;;14.20;5.80;;;;;;;13.28;92.16;101387.25;5100040;27;20518;-55
2021/07/01 03:45:05;;;;;;;18.92;6.43;;;;;;;13.22;92.54;101387.66;5107678;27;20108;-55
2021/07/01 03:47:33;;;;;;;13.52;6.03;;;;;;;13.23;91.86;101388.53;5092818;28;20066;-53
2021/07/01 03:50:00;;;;;;;12.75;5.55;;;;;;;13.24;92.19;101398.97;5115842;27;20122;-54
2021/07/01 03:52:27;;;;;;;15.48;6.22;;;;;;;13.16;91.41;101393.38;5097403;27;20503;-55
2021/07/01 03:54:54;;;;;;;19.83;6.30;;;;;;;13.20;92.02;101389.56;5117095;27;20087;-56
2021/07/01 03:57:21;;;;;;;12.90;6.30;;;;;;;13.21;92.43;101385.13;5114494;27;20039;-56
2021/07/01 03:59:47;;;;;;;14.98;5.82;;;;;;;13.28;91.65;101389.91;5115480;27;20512;-53
2021/07/01 04:02:14;;;;;;;17.85;6.47;;;;;;;13.24;91.51;101393.69;5114382;27;20039;-53
2021/07/01 04:04:41;;;;;;;10.60;5.47;;;;;;;13.28;91.48;101396.94;5109077;27;20391;-60
2021/07/01 04:07:08;;;;;;;14.02;7.15;;;;;;;13.26;91.78;101397.06;5116126;27;20047;-59
2021/07/01 04:09:35;;;;;;;12.55;5.95;;;;;;;13.31;91.18;101399.41;5095004;28;20048;-60
2021/07/01 04:12:02;;;;;;;13.10;5.72;;;;;;;13.28;91.99;101396.94;5120453;27;20047;-55
2021/07/01 04:14:29;;;;;;;16.38;6.60;;;;;;;13.22;91.30;101400.84;5121374;27;20023;-54
2021/07/01 04:16:56;;;;;;;16.23;6.22;;;;;;;13.28;91.55;101395.19;5096848;27;20047;-55
2021/07/01 04:19:23;;;;;;;13.35;6.03;;;;;;;13.31;92.17;101394.97;5110094;27;20048;-51
2021/07/01 04:21:50;;;;;;;13.15;6.57;;;;;;;13.31;92.13;101396.78;5079792;27;20055;-54
2021/07/01 04:24:16;;;;;;;17.23;6.10;;;;;;;13.35;92.22;101398.25;5113879;27;20499;-55
2021/07/01 04:26:43;;;;;;;14.35;5.80;;;;;;;13.40;91.85;101396.16;5114338;27;20063;-54
2021/07/01 04:29:10;;;;;;;20.58;7.30;;;;;;;13.42;92.14;101398.72;5114723;27;20054;-54
2021/07/01 04:31:37;;;;;;;14.18;6.00;;;;;;;13.38;91.85;101398.06;5115994;27;20070;-56
2021/07/01 04:34:04;;;;;;;16.90;6.15;;;;;;;13.41;91.68;101397.00;5114877;27;20050;-54
2021/07/01 04:36:31;;;;;;;19.73;6.75;;;;;;;13.44;92.11;101389.72;5095560;28;20055;-60
2021/07/01 04:38:58;;;;;;;14.88;7.20;;;;;;;13.39;92.23;101394.47;5113917;27;20059;-60
2021/07/01 04:41:25;;;;;;;13.23;6.95;;;;;;;13.42;91.84;101388.97;5113232;27;20043;-60
2021/07/01 04:43:52;;;;;;;17.50;7.55;;;;;;;13.45;91.95;101385.28;5113176;27;20046;-59
2021/07/01 04:46:19;;;;;;;18.17;7.80;;;;;;;13.47;91.55;101386.88;5119371;27;20548;-60
2021/07/01 04:48:46;;;;;;;17.40;7.97;;;;;;;13.46;91.81;101400.19;5100849;27;20483;-60
2021/07/01 04:51:13;;;;;;;16.92;8.43;;;;;;;13.41;92.40;101397.84;5126820;27;20547;-60
2021/07/01 04:53:40;;;;;;;17.88;7.80;;;;;;;13.46;92.00;101405.47;5127587;27;20042;-60
2021/07/01 04:56:08;;;;;;;14.00;6.80;;;;;;;13.44;91.75;101396.78;5108194;27;20050;-60
2021/07/01 04:58:35;;;;;;;11.35;6.15;;;;;;;13.46;91.85;101393.09;5106148;27;20062;-53
2021/07/01 05:01:02;;;;;;;15.18;7.15;;;;;;;13.48;91.43;101398.28;5109744;27;20054;-55
2021/07/01 05:03:29;;;;;;;13.05;7.18;;;;;;;13.39;91.91;101398.91;5108291;27;20437;-59
2021/07/01 05:05:56;;;;;;;13.98;7.25;;;;;;;13.46;91.91;101395.75;5124148;27;20043;-59
2021/07/01 05:08:23;;;;;;;12.95;6.68;;;;;;;13.49;91.75;101399.97;5100804;27;20100;-59
2021/07/01 05:10:49;;;;;;;13.00;6.20;;;;;;;13.43;91.95;101389.81;5115057;27;20051;-59
2021/07/01 05:13:16;;;;;;;13.95;6.68;;;;;;;13.42;91.42;101399.53;5124958;27;20100;-51
2021/07/01 05:15:43;;;;;;;16.80;7.07;;;;;;;13.26;91.20;101394.41;5121816;28;20051;-54
2021/07/01 05:18:10;;;;;;;17.10;7.10;;;;;;;13.19;91.23;101396.63;5101999;28;20047;-52
2021/07/01 05:20:37;;;;;;;16.42;7.70;;;;;;;13.24;91.68;101396.34;5110878;28;20038;-59
2021/07/01 05:23:04;;;;;;;15.60;7.60;;;;;;;13.19;91.90;101398.44;5085879;28;20043;-59
2021/07/01 05:25:31;;;;;;;20.60;7.93;;;;;;;13.19;91.66;101398.44;5112764;28;20122;-55
2021/07/01 05:27:57;;;;;;;17.98;8.45;;;;;;;13.27;91.65;101396.13;5092951;28;20050;-55
2021/07/01 05:30:24;;;;;;;17.25;7.55;;;;;;;13.28;91.75;101391.66;5117246;28;20047;-54
2021/07/01 05:32:51;;;;;;;20.50;8.07;;;;;;;13.26;92.31;101394.41;5118992;28;20117;-55
2021/07/01 05:35:18;;;;;;;20.77;8.05;;;;;;;13.27;91.85;101390.00;5115889;28;20031;-54
2021/07/01 05:37:44;;;;;;;18.77;7.90;;;;;;;13.34;91.84;101393.91;5084169;28;20051;-59
2021/07/01 05:40:15;;;;;;;15.98;7.57;;;;;;;13.28;91.64;101389.91;5113496;28;20043;-59
2021/07/01 05:42:42;;;;;;;16.98;7.85;;;;;;;13.33;92.35;101394.84;5111773;28;20047;-59
2021/07/01 05:45:09;;;;;;;17.50;7.70;;;;;;;13.36;91.21;101381.47;5105799;28;20125;-59
2021/07/01 05:47:36;;;;;;;20.15;8.25;;;;;;;13.39;91.17;101389.19;5112347;28;20404;-59
2021/07/01 05:50:05;;;;;;;18.25;8.10;;;;;;;13.37;91.37;101390.25;5121583;28;20050;-59
2021/07/01 05:52:34;;;;;;;18.10;8.20;;;;;;;13.35;91.79;101393.84;5108816;28;20096;-59
2021/07/01 05:55:01;;;;;;;17.35;7.85;;;;;;;13.42;91.92;101382.84;5118494;28;20040;-59
2021/07/01 05:57:28;;;;;;;16.38;8.00;;;;;;;13.42;91.73;101383.69;5108611;28;20044;-59
2021/07/01 05:59:55;;;;;;;17.67;8.52;;;;;;;13.45;91.64;101388.75;5100355;28;20040;-59
2021/07/01 06:02:22;;;;;;;16.15;7.53;;;;;;;13.41;91.57;101386.44;5126285;28;20469;-59
2021/07/01 06:04:49;;;;;;;15.85;7.30;;;;;;;13.38;91.53;101394.59;5110372;28;20552;-54
2021/07/01 06:07:19;;;;;;;16.25;8.55;;;;;;;13.38;91.58;101386.66;5115383;28;20044;-59
2021/07/01 06:09:52;;;;;;;18.63;8.18;;;;;;;13.39;92.17;101389.19;5111257;28;20051;-51
2021/07/01 06:12:21;;;;;;;20.77;8.02;;;;;;;13.32;92.58;101401.06;5113943;28;20060;-53
2021/07/01 06:14:56;;;;;;;14.75;7.55;;;;;;;13.29;92.18;101396.88;5116271;28;20044;-53
2021/07/01 06:17:35;;;;;;;22.23;7.53;;;;;;;13.34;92.89;101400.03;5109436;28;20437;-53
2021/07/01 06:20:10;;;;;;;13.43;7.60;;;;;;;13.34;92.91;101392.09;5118467;27;20119;-53
2021/07/01 06:22:37;;;;;;;16.50;7.32;;;;;;;13.41;92.15;101384.63;5123605;27;20130;-54
2021/07/01 06:25:06;;;;;;;14.82;7.28;;;;;;;13.45;92.89;101390.56;5104507;27;20055;-59
2021/07/01 06:27:37;;;;;;;16.52;7.15;;;;;;;13.46;92.74;101384.34;5111259;27;20043;-59
2021/07/01 06:30:18;;;;;;;15.52;6.90;;;;;;;13.51;92.76;101380.44;5104861;27;20040;-59
2021/07/01 06:32:45;;;;;;;15.50;6.95;;;;;;;13.57;92.38;101381.78;5120272;27;20066;-52
2021/07/01 06:35:16;;;;;;;13.73;7.32;;;;;;;13.57;92.62;101380.97;5100373;27;20834;-54
2021/07/01 06:37:43;;;;;;;13.30;7.90;;;;;;;13.57;92.92;101379.16;5115425;27;20410;-54
2021/07/01 06:40:11;;;;;;;14.65;7.32;;;;;;;13.58;93.23;101380.84;5119882;27;20430;-55
2021/07/01 06:42:47;;;;;;;16.88;7.72;;;;;;;13.63;92.82;101386.66;5113849;27;20040;-54
2021/07/01 06:45:16;;;;;;;19.08;8.88;;;;;;;13.67;92.98;101385.50;5123724;27;20100;-54
2021/07/01 06:47:53;;;;;;;14.63;6.78;;;;;;;13.66;92.71;101389.09;5130168;27;20570;-52
2021/07/01 06:50:23;;;;;;;13.13;7.70;;;;;;;13.72;92.90;101390.44;5113313;27;20130;-55
2021/07/01 06:52:54;;;;;;;13.32;7.32;;;;;;;13.68;91.71;101389.81;5114201;27;20104;-54
2021/07/01 06:55:22;;;;;;;12.80;7.07;;;;;;;13.80;92.23;101392.56;5122402;27;20039;-55
2021/07/01 06:57:49;;;;;;;16.52;7.72;;;;;;;13.88;92.22;101390.22;5109518;27;20046;-53
2021/07/01 07:00:18;;;;;;;14.68;7.20;;;;;;;13.88;91.92;101398.16;5124255;27;20549;-54
2021/07/01 07:02:45;;;;;;;15.77;7.35;;;;;;;13.94;92.39;101395.06;5113994;27;20050;-56
2021/07/01 07:05:16;;;;;;;12.05;6.60;;;;;;;14.01;91.89;101398.13;5121743;27;20055;-59
2021/07/01 07:07:45;;;;;;;16.30;6.95;;;;;;;13.98;91.49;101396.53;5095148;28;20062;-55
2021/07/01 07:10:15;;;;;;;16.08;7.53;;;;;;;13.95;91.76;101393.28;5114441;27;20048;-53
2021/07/01 07:12:43;;;;;;;15.63;7.93;;;;;;;13.97;91.27;101404.59;5098804;28;20047;-54
2021/07/01 07:15:13;;;;;;;17.33;7.85;;;;;;;13.98;91.45;101407.13;5111297;28;20039;-53
2021/07/01 07:17:41;;;;;;;16.27;7.40;;;;;;;13.94;91.13;101407.47;5081315;28;20036;-54
2021/07/01 07:20:09;;;;;;;16.88;7.70;;;;;;;13.97;90.77;101405.41;5111222;27;20039;-52
2021/07/01 07:22:42;;;;;;;17.17;8.07;;;;;;;13.94;91.70;101400.34;5110340;27;20051;-60
2021/07/01 07:25:11;;;;;;;17.42;8.18;;;;;;;14.01;91.64;101400.78;5111373;27;20044;-59
2021/07/01 07:27:39;;;;;;;18.15;8.35;;;;;;;14.06;91.23;101413.66;5119723;27;20100;-60
2021/07/01 07:30:06;;;;;;;17.95;8.35;;;;;;;14.05;91.35;101404.06;5108268;27;20043;-60
2021/07/01 07:32:37;;;;;;;20.48;8.63;;;;;;;14.03;91.39;101415.56;5104258;27;20046;-60
2021/07/01 07:35:10;;;;;;;18.45;8.68;;;;;;;14.05;91.40;101409.34;5114581;27;20039;-60
2021/07/01 07:37:37;;;;;;;18.67;8.80;;;;;;;14.09;91.55;101403.72;5119936;27;20373;-60
2021/07/01 07:40:05;;;;;;;20.75;9.15;;;;;;;14.17;91.04;101408.47;5111307;27;20108;-56
2021/07/01 07:42:32;;;;;;;19.55;8.65;;;;;;;14.09;91.08;101414.28;5101176;27;20042;-54
2021/07/01 07:45:00;;;;;;;15.75;8.00;;;;;;;14.16;90.58;101409.41;5111245;27;20040;-55
2021/07/01 07:47:31;;;;;;;17.60;8.32;;;;;;;14.14;91.03;101409.53;5102934;27;20039;-55
2021/07/01 07:49:58;;;;;;;18.00;8.95;;;;;;;14.23;91.05;101407.19;5091249;28;20048;-53
2021/07/01 07:52:25;;;;;;;18.13;8.75;;;;;;;14.15;91.22;101410.38;5090997;28;20048;-55
2021/07/01 07:54:54;;;;;;;18.30;8.98;;;;;;;14.13;91.18;101409.63;5091751;28;20109;-54
2021/07/01 07:57:28;;;;;;;19.02;8.70;;;;;;;14.12;91.11;101414.06;5109830;27;20133;-53
2021/07/01 08:00:00;;;;;;;17.17;7.60;;;;;;;14.17;91.45;101419.06;5098537;27;20122;-54
2021/07/01 08:02:42;;;;;;;14.85;7.90;;;;;;;14.22;91.91;101422.22;5115840;27;20049;-54
2021/07/01 08:05:09;;;;;;;20.70;8.52;;;;;;;14.18;90.98;101413.66;5099831;27;20062;-60
2021/07/01 08:07:38;;;;;;;17.33;8.38;;;;;;;14.25;90.95;101416.69;5126901;27;20101;-59
2021/07/01 08:10:09;;;;;;;17.23;7.68;;;;;;;14.27;92.03;101417.41;5117467;27;20047;-59
2021/07/01 08:12:40;;;;;;;15.63;8.75;;;;;;;14.22;90.90;101416.94;5095997;27;20570;-60
2021/07/01 08:15:12;;;;;;;19.80;8.20;;;;;;;14.25;91.10;101423.78;5109969;27;20050;-59
2021/07/01 08:17:41;;;;;;;19.17;8.48;;;;;;;14.33;90.70;101427.56;5114904;27;20047;-58
2021/07/01 08:20:10;;;;;;;19.30;8.48;;;;;;;14.31;91.33;101421.53;5098952;27;20031;-57
2021/07/01 08:22:46;;;;;;;17.95;7.65;;;;;;;14.30;91.39;101426.94;5115641;27;20536;-57
2021/07/01 08:25:14;;;;;;;15.63;8.15;;;;;;;14.25;91.18;101424.63;5106274;27;20066;-54
2021/07/01 08:27:42;;;;;;;19.42;8.95;;;;;;;14.18;92.08;101420.75;5094273;27;20073;-53
2021/07/01 08:30:10;;;;;;;19.35;8.07;;;;;;;14.20;91.64;101427.59;5122781;27;20054;-53
2021/07/01 08:32:38;;;;;;;24.77;8.95;;;;;;;14.25;92.25;101435.22;5084416;27;20053;-53
2021/07/01 08:35:07;;;;;;;19.05;8.38;;;;;;;14.32;91.74;101438.28;5120972;27;20854;-50
2021/07/01 08:37:34;;;;;;;24.52;9.43;;;;;;;14.25;91.78;101439.66;5107459;28;20450;-53
2021/07/01 08:40:04;;;;;;;22.25;9.75;;;;;;;14.27;91.83;101441.22;5120145;27;20073;-49
2021/07/01 08:42:33;;;;;;;18.55;8.45;;;;;;;14.36;92.23;101439.75;5114129;27;20139;-51
2021/07/01 08:45:07;;;;;;;20.27;9.10;;;;;;;14.37;91.71;101436.97;5120855;27;20441;-53
2021/07/01 08:47:42;;;;;;;21.67;9.93;;;;;;;14.40;91.39;101438.56;5110100;28;20067;-55
2021/07/01 08:50:15;;;;;;;21.05;9.00;;;;;;;14.36;92.12;101439.75;5109431;28;20096;-54
2021/07/01 08:53:05;;;;;;;23.92;9.20;;;;;;;14.39;91.99;101446.63;5103733;28;20044;-55
2021/07/01 08:55:32;;;;;;;20.77;8.10;;;;;;;14.44;92.07;101453.25;5127095;27;20039;-52
2021/07/01 08:58:00;;;;;;;21.60;9.52;;;;;;;14.45;92.42;101449.66;5126142;27;20426;-57
2021/07/01 09:00:28;;;;;;;17.33;8.68;;;;;;;14.51;92.42;101446.56;5122742;27;20491;-58
2021/07/01 09:03:08;;;;;;;17.40;9.30;;;;;;;14.51;91.96;101451.03;5123947;27;20039;-57
2021/07/01 09:05:37;;;;;;;24.17;9.70;;;;;;;14.41;91.96;101449.97;5106587;28;20122;-50
2021/07/01 09:08:11;;;;;;;20.02;8.15;;;;;;;14.55;91.56;101455.13;5117503;27;20101;-50
2021/07/01 09:10:50;;;;;;;21.88;8.57;;;;;;;14.54;92.16;101450.78;5120170;27;20491;-55
2021/07/01 09:13:20;;;;;;;18.05;8.23;;;;;;;14.60;92.36;101447.72;5118750;27;20039;-53
2021/07/01 09:15:48;;;;;;;21.20;8.77;;;;;;;14.63;92.89;101444.00;5109450;28;20040;-52
2021/07/01 09:18:16;;;;;;;22.48;9.25;;;;;;;14.63;91.39;101450.16;5106823;28;20051;-58
2021/07/01 09:20:43;;;;;;;17.73;8.38;;;;;;;14.70;91.19;101442.63;5109453;28;20054;-58
2021/07/01 09:23:11;;;;;;;21.25;8.48;;;;;;;14.69;91.57;101452.34;5109726;28;20052;-58
2021/07/01 09:25:41;;;;;;;18.48;8.50;;;;;;;14.62;91.58;101451.09;5109850;28;20050;-53
2021/07/01 09:28:09;;;;;;;23.23;8.57;;;;;;;14.68;91.33;101450.69;5108821;28;20036;-55
2021/07/01 09:30:36;;;;;;;21.60;9.50;;;;;;;14.68;91.04;101455.97;5107850;28;20503;-58
2021/07/01 09:33:05;;;;;;;24.35;10.77;;;;;;;14.66;91.96;101449.94;5091478;28;20121;-53
2021/07/01 09:35:34;;;;;;;23.45;8.75;;;;;;;14.67;90.94;101451.63;5109514;28;20040;-53
2021/07/01 09:38:04;;;;;;;18.92;8.35;;;;;;;14.64;89.13;101451.88;5091215;28;20058;-53
2021/07/01 09:40:33;;;;;;;21.70;9.00;;;;;;;14.60;90.28;101460.09;5117054;28;20537;-54
2021/07/01 09:43:02;;;;;;;19.83;9.07;;;;;;;14.60;90.62;101455.66;5106866;28;20524;-53
2021/07/01 09:45:31;;;;;;;19.10;9.23;;;;;;;14.60;91.36;101454.78;5120258;28;20035;-51
2021/07/01 09:48:06;;;;;;;21.48;8.95;;;;;;;14.61;91.42;101462.63;5091963;28;20048;-58
2021/07/01 09:50:53;;;;;;;24.17;9.88;;;;;;;14.59;89.87;101459.25;5120271;27;20511;-57
2021/07/01 09:53:31;;;;;;;24.20;9.80;;;;;;;14.53;91.64;101462.31;5127382;27;20491;-58
2021/07/01 09:56:06;;;;;;;19.30;9.52;;;;;;;14.57;91.02;101463.78;5113626;27;20043;-58
2021/07/01 09:58:37;;;;;;;27.15;10.25;;;;;;;14.66;91.23;101467.63;5127119;27;20047;-59
2021/07/01 10:01:04;;;;;;;22.60;9.68;;;;;;;14.72;91.20;101472.47;5119339;27;20043;-57
2021/07/01 10:03:50;;;;;;;26.15;9.18;;;;;;;14.71;91.55;101476.06;5115879;27;20052;-58
2021/07/01 10:06:18;;;;;;;18.95;8.55;;;;;;;14.78;91.17;101477.31;5102292;27;20035;-59
2021/07/01 10:08:45;;;;;;;25.00;9.63;;;;;;;14.80;91.67;101479.84;5112555;27;20441;-54
2021/07/01 10:11:12;;;;;;;23.58;9.23;;;;;;;14.80;90.80;101477.22;5121261;27;20491;-55
2021/07/01 10:13:39;;;;;;;24.20;9.05;;;;;;;14.78;90.74;101477.31;5119262;27;20043;-59
2021/07/01 10:16:06;;;;;;;27.38;10.05;;;;;;;14.78;90.87;101479.97;5118630;27;20414;-55
2021/07/01 10:18:43;;;;;;;21.85;9.30;;;;;;;14.81;91.26;101476.25;5120706;27;20051;-55
2021/07/01 10:21:17;;;;;;;21.08;9.98;;;;;;;14.83;90.96;101476.97;5095173;28;20447;-59
2021/07/01 10:23:45;;;;;;;23.65;8.50;;;;;;;14.87;91.40;101487.25;5098103;27;20110;-58
2021/07/01 10:26:21;;;;;;;18.98;8.68;;;;;;;14.93;91.24;101482.44;5132894;27;20070;-57
2021/07/01 10:28:58;;;;;;;21.38;9.10;;;;;;;15.02;91.37;101487.06;5101372;27;20476;-59
2021/07/01 10:31:25;;;;;;;18.05;8.77;;;;;;;14.99;91.98;101482.00;5093946;28;20399;-54
2021/07/01 10:33:59;;;;;;;20.55;9.35;;;;;;;15.00;92.52;101478.41;5114371;27;20055;-56
2021/07/01 10:36:27;;;;;;;23.02;10.32;;;;;;;15.09;91.26;101480.34;5114924;27;20043;-59
2021/07/01 10:38:54;;;;;;;22.17;9.63;;;;;;;15.14;92.16;101485.31;5128960;27;20056;-59
2021/07/01 10:41:32;;;;;;;21.38;8.82;;;;;;;15.16;91.08;101480.72;5111481;28;20870;-58
2021/07/01 10:44:00;;;;;;;20.65;8.68;;;;;;;15.22;91.75;101477.63;5098264;27;20066;-58
2021/07/01 10:46:42;;;;;;;25.27;9.68;;;;;;;15.30;91.45;101479.72;5113612;27;20039;-59
2021/07/01 10:49:10;;;;;;;23.05;10.30;;;;;;;15.35;91.20;101489.00;5110700;27;20511;-58
2021/07/01 10:51:53;;;;;;;;;;;;;;;15.49;91.30;101480.00;5100345;28;20124;-59
2021/07/01 10:54:20;;;;;;;26.40;9.85;;;;;;;15.54;91.22;101479.66;5124240;27;20395;-54
2021/07/01 10:57:08;;;;;;;21.17;9.70;;;;;;;15.55;90.67;101476.88;5114789;27;20482;-54
2021/07/01 10:59:51;;;;;;;22.83;9.48;;;;;;;15.56;90.45;101485.69;5108209;27;20470;-55
2021/07/01 11:02:30;;;;;;;19.92;9.45;;;;;;;15.63;90.88;101480.78;5104694;27;21795;-54
2021/07/01 11:05:02;;;;;;;19.80;8.93;;;;;;;15.65;91.07;101481.47;5104515;28;20052;-55
2021/07/01 11:07:46;;;;;;;21.58;9.43;;;;;;;15.71;90.86;101484.50;5088701;28;20055;-52
2021/07/01 11:10:14;;;;;;;22.13;9.65;;;;;;;15.74;90.25;101480.78;5071342;27;20063;-54
2021/07/01 11:12:46;;;;;;;25.70;10.70;;;;;;;15.72;90.29;101488.03;5089315;27;20051;-54
2021/07/01 11:15:20;;;;;;;25.13;10.05;;;;;;;15.74;90.38;101485.25;5088804;28;20051;-56
2021/07/01 11:17:47;;;;;;;22.52;9.10;;;;;;;15.77;90.04;101492.97;5104147;28;20047;-56
2021/07/01 11:20:19;;;;;;;19.25;8.57;;;;;;;15.76;89.41;101494.78;5104437;28;20097;-59
2021/07/01 11:22:54;;;;;;;23.50;10.13;;;;;;;15.82;90.40;101490.84;5087954;28;20508;-55
2021/07/01 11:25:44;;;;;;;22.95;9.02;;;;;;;15.83;89.91;101489.88;5105283;28;20047;-54
2021/07/01 11:28:17;;;;;;;21.45;8.82;;;;;;;15.73;88.53;101492.34;5103967;28;20503;-54